createdAt,value
2018-09-01T00:02:08.064Z,35.10
2018-09-01T00:05:06.020Z,36.17
2018-09-01T00:08:04.078Z,35.80
2018-09-01T00:11:02.173Z,35.47
2018-09-01T00:14:00.206Z,38.63
2018-09-01T00:16:58.371Z,36.30
2018-09-01T00:19:56.488Z,35.80
2018-09-01T00:22:54.274Z,36.53
2018-09-01T00:25:52.369Z,39.57
2018-09-01T00:28:51.427Z,39.47
2018-09-01T00:31:49.592Z,38.47
2018-09-01T00:34:47.569Z,37.93
2018-09-01T00:37:51.440Z,37.67
2018-09-01T00:40:50.236Z,37.57
2018-09-01T00:43:48.193Z,36.47
2018-09-01T00:46:46.334Z,38.70
2018-09-01T00:49:44.200Z,38.47
2018-09-01T00:52:42.351Z,39.23
2018-09-01T00:55:41.547Z,41.13
2018-09-01T00:58:39.385Z,37.40
2018-09-01T01:01:37.450Z,40.97
2018-09-01T01:04:35.407Z,39.37
2018-09-01T01:07:33.368Z,36.43
2018-09-01T01:10:32.238Z,40.17
2018-09-01T01:13:30.302Z,37.60
2018-09-01T01:16:28.268Z,37.63
2018-09-01T01:19:26.332Z,38.33
2018-09-01T01:22:24.392Z,35.27
2018-09-01T01:25:22.375Z,38.80
2018-09-01T01:28:20.272Z,38.33
2018-09-01T01:31:18.250Z,39.13
2018-09-01T01:34:17.243Z,37.20
2018-09-01T01:37:15.231Z,38.13
2018-09-01T01:40:14.506Z,38.63
2018-09-01T01:43:12.564Z,39.00
2018-09-01T01:46:10.593Z,33.83
2018-09-01T01:49:08.360Z,34.47
2018-09-01T01:52:06.224Z,38.30
2018-09-01T01:55:04.117Z,38.83
2018-09-01T01:58:02.176Z,38.73
2018-09-01T02:01:00.173Z,38.57
2018-09-01T02:03:59.080Z,38.53
2018-09-01T02:06:57.045Z,37.20
2018-09-01T02:09:54.973Z,39.50
2018-09-01T02:12:52.945Z,41.53
2018-09-01T02:15:51.119Z,40.40
2018-09-01T02:18:48.966Z,40.20
2018-09-01T02:21:47.852Z,41.17
2018-09-01T02:24:46.021Z,41.07
2018-09-01T02:28:47.479Z,41.73
2018-09-01T02:31:45.665Z,38.83
2018-09-01T02:34:43.742Z,39.47
2018-09-01T02:37:41.583Z,39.17
2018-09-01T02:40:40.604Z,40.63
2018-09-01T02:43:38.612Z,40.07
2018-09-01T02:46:36.598Z,43.77
2018-09-01T02:49:34.556Z,41.60
2018-09-01T02:52:33.134Z,43.13
2018-09-01T02:58:03.553Z,40.73
2018-09-01T03:01:07.557Z,43.40
2018-09-01T03:04:06.529Z,43.07
2018-09-01T03:07:10.424Z,40.03
2018-09-01T03:10:08.484Z,36.30
2018-09-01T03:13:06.439Z,36.87
2018-09-01T03:16:04.463Z,41.87
2018-09-01T03:19:03.693Z,41.80
2018-09-01T03:22:01.763Z,40.37
2018-09-01T03:25:00.835Z,39.30
2018-09-01T03:28:00.001Z,38.37
2018-09-01T03:30:57.765Z,37.57
2018-09-01T03:33:55.784Z,38.87
2018-09-01T03:36:53.907Z,38.67
2018-09-01T03:39:51.941Z,37.10
2018-09-01T03:42:50.839Z,36.37
2018-09-01T03:45:48.888Z,35.83
2018-09-01T03:48:47.705Z,34.87
2018-09-01T03:51:45.646Z,33.83
2018-09-01T03:54:43.688Z,36.77
2018-09-01T03:57:41.647Z,35.97
2018-09-01T04:00:39.731Z,36.17
2018-09-01T04:03:37.767Z,36.40
2018-09-01T04:06:35.988Z,37.30
2018-09-01T04:09:33.968Z,36.47
2018-09-01T04:12:31.962Z,36.87
2018-09-01T04:15:30.450Z,37.73
2018-09-01T04:18:29.417Z,40.90
2018-09-01T04:21:27.443Z,36.17
2018-09-01T04:24:25.465Z,43.70
2018-09-01T04:27:23.597Z,42.07
2018-09-01T04:30:21.646Z,40.33
2018-09-01T04:33:19.702Z,39.20
2018-09-01T04:36:17.674Z,38.63
2018-09-01T04:39:17.704Z,40.27
2018-09-01T04:42:16.563Z,40.47
2018-09-01T04:45:14.711Z,42.80
2018-09-01T04:48:12.668Z,42.93
2018-09-01T04:51:10.728Z,41.83
2018-09-01T04:54:08.895Z,41.23
2018-09-01T04:57:07.069Z,36.67
2018-09-01T05:00:04.999Z,33.07
2018-09-01T05:03:04.094Z,31.13
2018-09-01T05:06:01.957Z,28.63
2018-09-01T05:09:00.223Z,29.53
2018-09-01T05:11:59.307Z,26.97
2018-09-01T05:14:57.078Z,21.07
2018-09-01T05:17:56.028Z,19.77
2018-09-01T05:20:54.084Z,19.30
2018-09-01T05:23:52.165Z,18.80
2018-09-01T05:26:50.996Z,19.33
2018-09-01T05:29:50.072Z,17.90
2018-09-01T05:32:48.361Z,17.47
2018-09-01T05:35:46.535Z,16.07
2018-09-01T05:38:44.697Z,15.00
2018-09-01T05:41:42.870Z,15.60
2018-09-01T05:44:41.744Z,15.40
2018-09-01T05:47:41.028Z,13.83
2018-09-01T05:50:40.369Z,13.07
2018-09-01T05:53:40.107Z,13.57
2018-09-01T05:56:38.089Z,11.50
2018-09-01T05:59:36.906Z,12.23
2018-09-01T06:10:13.093Z,11.03
2018-09-01T06:13:10.916Z,11.33
2018-09-01T06:16:08.997Z,11.87
2018-09-01T06:19:06.979Z,11.73
2018-09-01T06:22:04.875Z,12.70
2018-09-01T06:25:02.872Z,12.47
2018-09-01T06:28:12.065Z,12.77
2018-09-01T06:31:10.030Z,11.60
2018-09-01T06:34:07.988Z,11.43
2018-09-01T06:37:06.033Z,11.37
2018-09-01T06:40:03.987Z,10.90
2018-09-01T06:43:01.826Z,13.00
2018-09-01T06:46:00.096Z,12.40
2018-09-01T06:49:00.341Z,12.13
2018-09-01T06:51:58.299Z,12.87
2018-09-01T06:54:56.765Z,12.90
2018-09-01T06:57:56.351Z,12.50
2018-09-01T07:00:54.622Z,11.33
2018-09-01T07:03:53.927Z,10.57
2018-09-01T07:06:52.178Z,10.10
2018-09-01T07:09:50.523Z,9.27
2018-09-01T07:12:49.843Z,8.77
2018-09-01T07:15:48.320Z,8.23
2018-09-01T07:18:46.665Z,8.40
2018-09-01T07:21:46.056Z,9.27
2018-09-01T07:24:43.994Z,8.20
2018-09-01T07:27:42.074Z,8.83
2018-09-01T07:30:40.549Z,8.03
2018-09-01T07:33:40.327Z,9.87
2018-09-01T07:36:39.462Z,10.60
2018-09-01T07:39:37.495Z,10.57
2018-09-01T07:42:35.711Z,10.97
2018-09-01T07:45:33.694Z,9.23
2018-09-01T07:48:31.595Z,9.17
2018-09-01T07:51:30.018Z,9.80
2018-09-01T07:54:28.253Z,8.60
2018-09-01T07:57:26.208Z,8.93
2018-09-01T08:00:27.013Z,8.90
2018-09-01T08:03:25.338Z,8.57
2018-09-01T08:06:23.192Z,8.27
2018-09-01T08:09:22.287Z,8.33
2018-09-01T08:12:20.479Z,7.73
2018-09-01T08:15:18.514Z,8.10
2018-09-01T08:18:20.770Z,8.73
2018-09-01T08:21:19.650Z,8.63
2018-09-01T08:24:17.670Z,7.03
2018-09-01T08:27:15.804Z,7.80
2018-09-01T08:30:14.025Z,7.30
2018-09-01T08:33:13.483Z,7.00
2018-09-01T08:36:11.507Z,6.50
2018-09-01T08:39:09.746Z,6.47
2018-09-01T08:42:08.199Z,5.80
2018-09-01T08:45:06.543Z,6.43
2018-09-01T08:48:04.707Z,6.00
2018-09-01T08:51:03.530Z,5.43
2018-09-01T08:54:01.591Z,5.93
2018-09-01T08:57:01.022Z,5.50
2018-09-01T09:00:00.127Z,5.07
2018-09-01T09:02:58.131Z,5.93
2018-09-01T09:05:57.089Z,4.80
2018-09-01T09:08:56.389Z,5.00
2018-09-01T09:11:54.441Z,5.27
2018-09-01T09:14:52.505Z,5.07
2018-09-01T09:18:53.725Z,4.90
2018-09-01T09:21:51.900Z,5.00
2018-09-01T09:24:50.747Z,4.50
2018-09-01T09:27:48.814Z,4.40
2018-09-01T09:30:46.770Z,3.97
2018-09-01T09:33:45.138Z,4.30
2018-09-01T09:36:43.091Z,4.27
2018-09-01T09:39:41.264Z,4.40
2018-09-01T09:42:40.225Z,3.90
2018-09-01T09:45:38.194Z,4.10
2018-09-01T09:48:37.079Z,4.27
2018-09-01T09:51:36.066Z,4.03
2018-09-01T09:54:34.382Z,4.23
2018-09-01T09:57:33.394Z,3.90
2018-09-01T10:00:38.628Z,3.83
2018-09-01T10:03:36.696Z,3.33
2018-09-01T10:06:34.577Z,4.10
2018-09-01T10:09:33.615Z,3.90
2018-09-01T10:12:31.779Z,4.30
2018-09-01T10:15:29.740Z,4.10
2018-09-01T10:18:27.704Z,3.80
2018-09-01T10:21:25.776Z,3.63
2018-09-01T10:24:24.038Z,3.80
2018-09-01T10:27:22.099Z,3.30
2018-09-01T10:30:20.256Z,3.90
2018-09-01T10:33:19.446Z,3.10
2018-09-01T10:36:17.841Z,3.53
2018-09-01T10:39:15.899Z,3.27
2018-09-01T10:42:13.695Z,3.60
2018-09-01T10:45:11.676Z,3.33
2018-09-01T10:48:09.653Z,3.30
2018-09-01T10:51:07.580Z,3.70
2018-09-01T10:54:05.648Z,3.30
2018-09-01T10:57:04.727Z,2.90
2018-09-01T11:00:02.698Z,2.83
2018-09-01T11:03:02.089Z,3.03
2018-09-01T11:06:00.252Z,2.80
2018-09-01T11:08:58.316Z,2.77
2018-09-01T11:11:56.736Z,2.87
2018-09-01T11:14:54.744Z,2.70
2018-09-01T11:17:52.705Z,2.90
2018-09-01T11:20:50.695Z,2.60
2018-09-01T11:23:48.811Z,2.90
2018-09-01T11:26:46.797Z,2.60
2018-09-01T11:29:44.626Z,2.60
2018-09-01T11:32:42.796Z,2.55
2018-09-01T11:35:40.839Z,2.83
2018-09-01T11:38:41.293Z,3.12
2018-09-01T11:41:40.236Z,2.60
2018-09-01T11:44:39.549Z,3.10
2018-09-01T11:47:38.812Z,3.10
2018-09-01T11:50:37.824Z,3.47
2018-09-01T11:53:37.262Z,2.17
2018-09-01T11:56:36.228Z,2.50
2018-09-01T11:59:35.366Z,2.45
2018-09-01T12:02:37.670Z,2.70
2018-09-01T12:05:36.535Z,2.30
2018-09-01T12:08:35.990Z,2.40
2018-09-01T12:11:34.871Z,2.60
2018-09-01T12:14:33.051Z,2.37
2018-09-01T12:17:31.310Z,2.40
2018-09-01T12:20:29.563Z,2.42
2018-09-01T12:23:27.732Z,2.30
2018-09-01T12:26:25.775Z,2.20
2018-09-01T12:29:23.960Z,3.40
2018-09-01T12:32:22.029Z,3.02
2018-09-01T12:35:19.792Z,2.75
2018-09-01T12:38:17.619Z,2.60
2018-09-01T12:41:15.566Z,3.70
2018-09-01T12:44:13.521Z,2.35
2018-09-01T12:47:11.701Z,2.30
2018-09-01T12:50:09.639Z,2.15
2018-09-01T12:53:08.459Z,2.55
2018-09-01T12:56:06.452Z,2.83
2018-09-01T12:59:04.496Z,2.60
2018-09-01T13:02:02.388Z,2.02
2018-09-01T13:05:00.424Z,2.52
2018-09-01T13:07:58.705Z,3.00
2018-09-01T13:10:56.677Z,2.35
2018-09-01T13:13:54.746Z,2.60
2018-09-01T13:16:52.503Z,2.95
2018-09-01T13:19:51.440Z,2.27
2018-09-01T13:22:49.613Z,2.47
2018-09-01T13:25:47.587Z,2.58
2018-09-01T13:28:45.636Z,3.80
2018-09-01T13:31:43.704Z,3.85
2018-09-01T13:34:41.685Z,2.55
2018-09-01T13:37:39.629Z,2.30
2018-09-01T13:40:37.685Z,2.70
2018-09-01T13:46:45.268Z,2.00
2018-09-01T13:53:05.143Z,2.40
2018-09-01T13:56:03.142Z,2.67
2018-09-01T13:59:01.267Z,2.30
2018-09-01T14:01:59.488Z,2.47
2018-09-01T14:04:58.296Z,2.52
2018-09-01T14:07:56.569Z,2.45
2018-09-01T14:10:54.721Z,2.20
2018-09-01T14:13:52.787Z,2.37
2018-09-01T14:16:50.994Z,2.05
2018-09-01T14:19:55.894Z,1.90
2018-09-01T14:22:53.796Z,2.50
2018-09-01T14:25:51.896Z,2.40
2018-09-01T14:28:49.779Z,2.30
2018-09-01T14:31:47.882Z,2.05
2018-09-01T14:34:45.769Z,2.30
2018-09-01T14:37:43.672Z,3.08
2018-09-01T14:40:41.682Z,2.02
2018-09-01T14:43:39.960Z,2.12
2018-09-01T14:46:37.894Z,2.20
2018-09-01T14:49:35.901Z,2.27
2018-09-01T14:52:34.642Z,2.95
2018-09-01T14:55:33.608Z,1.90
2018-09-01T14:58:31.632Z,2.33
2018-09-01T15:01:30.664Z,2.52
2018-09-01T15:04:28.900Z,2.22
2018-09-01T15:07:27.097Z,2.20
2018-09-01T15:10:25.102Z,2.20
2018-09-01T15:13:22.892Z,2.22
2018-09-01T15:16:21.099Z,2.47
2018-09-01T15:19:18.964Z,2.08
2018-09-01T15:22:16.884Z,2.25
2018-09-01T15:25:14.976Z,2.25
2018-09-01T15:28:13.108Z,2.22
2018-09-01T15:31:10.897Z,2.40
2018-09-01T15:34:09.851Z,2.22
2018-09-01T15:37:07.828Z,2.15
2018-09-01T15:40:05.985Z,7.45
2018-09-01T15:43:04.343Z,5.03
2018-09-01T15:46:02.530Z,4.75
2018-09-01T15:49:00.753Z,3.20
2018-09-01T15:51:58.817Z,3.85
2018-09-01T15:54:56.881Z,3.92
2018-09-01T15:57:55.857Z,2.40
2018-09-01T16:00:54.839Z,2.20
2018-09-01T16:03:53.164Z,2.12
2018-09-01T16:06:52.090Z,2.00
2018-09-01T16:09:50.359Z,2.30
2018-09-01T16:12:51.404Z,2.10
2018-09-01T16:15:49.538Z,2.20
2018-09-01T16:18:49.756Z,2.30
2018-09-01T16:21:50.379Z,2.22
2018-09-01T16:24:51.676Z,2.20
2018-09-01T16:30:53.978Z,2.20
2018-09-01T16:33:52.255Z,2.25
2018-09-01T16:36:50.428Z,1.85
2018-09-01T16:39:49.578Z,2.47
2018-09-01T16:42:48.859Z,2.30
2018-09-01T16:45:46.767Z,2.20
2018-09-01T16:48:44.882Z,2.10
2018-09-01T16:51:43.976Z,2.37
2018-09-01T16:54:42.140Z,2.37
2018-09-01T16:57:40.220Z,2.50
2018-09-01T17:00:38.325Z,2.20
2018-09-01T17:03:36.181Z,2.10
2018-09-01T17:06:35.397Z,2.47
2018-09-01T17:09:33.609Z,2.20
2018-09-01T17:12:31.494Z,2.30
2018-09-01T17:15:29.688Z,2.10
2018-09-01T17:18:28.742Z,2.30
2018-09-01T17:21:26.880Z,2.17
2018-09-01T17:24:25.093Z,2.40
2018-09-01T17:27:23.256Z,2.50
2018-09-01T17:30:21.300Z,2.10
2018-09-01T17:33:19.269Z,2.50
2018-09-01T17:36:17.527Z,2.20
2018-09-01T17:39:15.389Z,2.30
2018-09-01T17:42:13.549Z,2.70
2018-09-01T17:45:11.734Z,3.13
2018-09-01T17:48:09.681Z,2.30
2018-09-01T17:51:07.793Z,2.40
2018-09-01T17:54:05.688Z,1.97
2018-09-01T17:57:03.755Z,2.50
2018-09-01T18:00:01.713Z,2.20
2018-09-01T18:03:00.760Z,2.13
2018-09-01T18:05:59.016Z,2.30
2018-09-01T18:08:57.005Z,2.27
2018-09-01T18:11:55.067Z,2.10
2018-09-01T18:14:54.064Z,2.03
2018-09-01T18:17:52.318Z,2.00
2018-09-01T18:20:51.506Z,2.10
2018-09-01T18:23:49.325Z,2.17
2018-09-01T18:26:49.410Z,2.30
2018-09-01T18:29:47.523Z,2.03
2018-09-01T18:32:45.487Z,2.20
2018-09-01T18:35:43.755Z,2.43
2018-09-01T18:38:43.040Z,2.07
2018-09-01T18:41:41.460Z,1.80
2018-09-01T18:44:40.383Z,2.00
2018-09-01T18:47:38.355Z,2.40
2018-09-01T18:50:37.565Z,1.90
2018-09-01T18:53:35.506Z,2.20
2018-09-01T18:56:33.455Z,1.90
2018-09-01T18:59:31.502Z,1.93
2018-09-01T19:02:29.601Z,1.97
2018-09-01T19:05:27.637Z,2.30
2018-09-01T19:08:25.675Z,2.10
2018-09-01T19:11:23.979Z,2.30
2018-09-01T19:14:22.012Z,2.00
2018-09-01T19:17:20.089Z,2.13
2018-09-01T19:20:18.126Z,2.10
2018-09-01T19:23:16.295Z,2.50
2018-09-01T19:26:14.248Z,2.03
2018-09-01T19:29:13.351Z,2.23
2018-09-01T19:32:12.546Z,2.00
2018-09-01T19:35:10.606Z,2.20
2018-09-01T19:38:08.656Z,2.37
2018-09-01T19:41:06.919Z,2.17
2018-09-01T19:44:05.028Z,2.50
2018-09-01T19:47:02.833Z,2.20
2018-09-01T19:50:01.027Z,2.40
2018-09-01T19:52:58.930Z,2.40
2018-09-01T19:55:57.833Z,2.20
2018-09-01T19:58:55.703Z,2.40
2018-09-01T20:01:53.686Z,2.20
2018-09-01T20:04:51.669Z,2.23
2018-09-01T20:07:49.515Z,2.20
2018-09-01T20:10:47.400Z,2.07
2018-09-01T20:13:45.367Z,2.30
2018-09-01T20:16:44.217Z,3.27
2018-09-01T20:19:42.651Z,2.30
2018-09-01T20:22:40.895Z,2.60
2018-09-01T20:25:39.870Z,2.60
2018-09-01T20:28:38.042Z,2.30
2018-09-01T20:31:36.316Z,2.37
2018-09-01T20:34:35.247Z,2.23
2018-09-01T20:37:33.228Z,2.17
2018-09-01T20:40:31.548Z,2.30
2018-09-01T20:43:31.395Z,2.10
2018-09-01T20:46:29.614Z,2.20
2018-09-01T20:49:27.702Z,2.70
2018-09-01T20:52:25.706Z,2.13
2018-09-01T20:55:24.656Z,2.10
2018-09-01T20:58:23.908Z,2.30
2018-09-01T21:01:22.927Z,2.60
2018-09-01T21:04:22.040Z,2.53
2018-09-01T21:07:20.081Z,2.30
2018-09-01T21:10:18.633Z,2.47
2018-09-01T21:13:17.317Z,2.50
2018-09-01T21:16:15.301Z,2.40
2018-09-01T21:19:13.507Z,2.83
2018-09-01T21:22:11.691Z,2.60
2018-09-01T21:25:09.767Z,2.53
2018-09-01T21:28:08.371Z,2.50
2018-09-01T21:31:09.022Z,2.70
2018-09-01T21:34:12.234Z,2.80
2018-09-01T21:37:14.299Z,2.43
2018-09-01T21:40:20.687Z,2.40
2018-09-01T21:43:23.970Z,2.17
2018-09-01T21:46:28.063Z,2.40
2018-09-01T21:49:30.910Z,2.33
2018-09-01T21:52:30.178Z,2.80
2018-09-01T21:55:28.341Z,2.70
2018-09-01T21:58:29.991Z,2.60
2018-09-01T22:01:36.372Z,2.80
2018-09-01T22:04:44.485Z,2.70
2018-09-01T22:07:46.694Z,3.00
2018-09-01T22:10:49.807Z,2.97
2018-09-01T22:13:53.599Z,2.77
2018-09-01T22:16:55.947Z,2.83
2018-09-01T22:19:58.716Z,2.97
2018-09-01T22:23:00.984Z,2.87
2018-09-01T22:26:02.593Z,2.80
2018-09-01T22:29:05.895Z,2.50
2018-09-01T22:32:08.924Z,2.43
2018-09-01T22:35:07.093Z,2.77
2018-09-01T22:38:05.370Z,2.50
2018-09-01T22:41:07.134Z,2.53
2018-09-01T22:44:10.107Z,4.50
2018-09-01T22:47:15.839Z,3.50
2018-09-01T22:50:18.726Z,2.90
2018-09-01T22:53:17.332Z,2.77
2018-09-01T22:56:15.606Z,3.00
2018-09-01T22:59:15.125Z,2.90
2018-09-01T23:02:13.464Z,2.83
2018-09-01T23:05:11.511Z,2.83
2018-09-01T23:08:14.811Z,2.90
2018-09-01T23:11:17.308Z,3.00
2018-09-01T23:14:19.143Z,3.40
2018-09-01T23:17:21.935Z,3.20
2018-09-01T23:20:24.995Z,3.27
2018-09-01T23:23:26.441Z,3.10
2018-09-01T23:26:28.578Z,3.33
2018-09-01T23:29:28.947Z,3.73
2018-09-01T23:32:27.582Z,3.40
2018-09-01T23:35:27.268Z,3.53
2018-09-01T23:38:25.397Z,3.10
2018-09-01T23:41:24.507Z,3.30
2018-09-01T23:44:22.637Z,2.90
2018-09-01T23:47:20.805Z,3.17
2018-09-01T23:50:18.863Z,2.80
2018-09-01T23:53:16.918Z,2.70
2018-09-01T23:56:15.088Z,3.00
2018-09-01T23:59:13.103Z,2.80
